Time;durP1;ratioP1;P1;durP2;ratioP2;P2;SDS_P1;SDS_P2;PMS_P1;PMS_P2;Temp;Humidity;BMP_temperature;BMP_pressure;BME280_temperature;BME280_humidity;BME280_pressure;Samples;Min_cycle;Max_cycle;Signal;HPM_P1;HPM_P2
2023/05/30 00:02:00;;;;;;;10.93;7.30;;;13.50;99.90;;;;;;7593781;19;20732;-74
2023/05/30 00:04:33;;;;;;;15.93;7.25;;;13.60;99.90;;;;;;7599030;19;20018;-75
2023/05/30 00:07:06;;;;;;;11.73;7.38;;;13.50;99.90;;;;;;7591230;19;20685;-75
2023/05/30 00:09:38;;;;;;;16.35;7.60;;;13.50;99.90;;;;;;7596142;19;20030;-75
2023/05/30 00:12:11;;;;;;;12.25;7.07;;;13.50;99.90;;;;;;7594646;19;20518;-74
2023/05/30 00:14:43;;;;;;;18.58;7.38;;;13.40;99.90;;;;;;7590252;19;20804;-75
2023/05/30 00:17:16;;;;;;;11.93;6.80;;;13.30;99.90;;;;;;7595118;19;20018;-75
2023/05/30 00:19:48;;;;;;;11.80;6.68;;;13.30;99.90;;;;;;7596236;19;20279;-75
2023/05/30 00:22:22;;;;;;;15.30;6.78;;;13.30;99.90;;;;;;7590732;19;20077;-75
2023/05/30 00:24:55;;;;;;;;;;;13.30;99.90;;;;;;7595600;19;20776;-75
2023/05/30 00:27:27;;;;;;;13.60;7.22;;;13.30;99.90;;;;;;7594668;19;19952;-75
2023/05/30 00:29:59;;;;;;;14.13;7.40;;;13.20;99.90;;;;;;7594529;19;20403;-75
2023/05/30 00:32:31;;;;;;;12.27;7.32;;;13.10;99.90;;;;;;7587127;19;20052;-76
2023/05/30 00:35:05;;;;;;;12.93;7.88;;;13.00;99.90;;;;;;7590039;19;20025;-75
2023/05/30 00:37:37;;;;;;;13.73;7.93;;;13.10;99.90;;;;;;7592846;19;20022;-75
2023/05/30 00:40:10;;;;;;;12.40;6.82;;;13.20;99.90;;;;;;7594501;19;20014;-75
2023/05/30 00:42:42;;;;;;;13.98;7.10;;;13.10;99.90;;;;;;7592894;19;20045;-74
2023/05/30 00:45:14;;;;;;;12.98;7.53;;;13.00;99.90;;;;;;7593135;19;20448;-75
2023/05/30 00:47:48;;;;;;;12.55;7.97;;;13.00;99.90;;;;;;7592640;19;20038;-75
2023/05/30 00:50:20;;;;;;;10.27;7.28;;;13.10;99.90;;;;;;7593797;19;20052;-75
2023/05/30 00:52:54;;;;;;;14.00;7.38;;;13.10;99.90;;;;;;7589728;19;20025;-75
2023/05/30 00:55:27;;;;;;;16.27;7.40;;;13.10;99.90;;;;;;7590307;19;20481;-75
2023/05/30 00:58:00;;;;;;;11.05;7.43;;;13.10;99.90;;;;;;7596168;19;20015;-74
2023/05/30 01:00:39;;;;;;;12.02;7.25;;;13.00;99.90;;;;;;7588298;19;20636;-75
2023/05/30 01:03:12;;;;;;;12.02;7.57;;;12.90;99.90;;;;;;7590039;19;20033;-75
2023/05/30 01:05:44;;;;;;;12.10;6.82;;;12.90;99.90;;;;;;7593447;19;20116;-75
2023/05/30 01:08:16;;;;;;;12.10;7.28;;;12.90;99.90;;;;;;7592495;19;20434;-75
2023/05/30 01:10:54;;;;;;;11.00;7.53;;;12.90;99.90;;;;;;7589452;19;20022;-75
2023/05/30 01:13:46;;;;;;;14.73;7.47;;;12.90;99.90;;;;;;7589768;19;20018;-75
2023/05/30 01:16:25;;;;;;;13.77;7.80;;;12.90;99.90;;;;;;7592767;19;20056;-75
2023/05/30 01:19:09;;;;;;;13.80;7.93;;;12.80;99.90;;;;;;7598347;19;20014;-75
2023/05/30 01:21:43;;;;;;;14.05;7.95;;;12.60;99.90;;;;;;7594370;19;20022;-75
2023/05/30 01:24:26;;;;;;;13.82;7.95;;;12.60;99.90;;;;;;7587213;19;20019;-75
2023/05/30 01:27:24;;;;;;;11.75;7.35;;;12.50;99.90;;;;;;7597679;19;20022;-75
2023/05/30 01:29:57;;;;;;;11.50;6.80;;;12.50;99.90;;;;;;7591470;19;20138;-75
2023/05/30 01:32:30;;;;;;;17.30;8.00;;;12.50;99.90;;;;;;7587368;19;20018;-74
2023/05/30 01:35:03;;;;;;;10.25;7.00;;;12.40;99.90;;;;;;7591854;19;20294;-74
2023/05/30 01:37:35;;;;;;;;;;;12.40;99.90;;;;;;7589392;19;20030;-75
2023/05/30 01:40:09;;;;;;;10.43;7.30;;;12.40;99.90;;;;;;7594709;19;19926;-75
2023/05/30 01:42:43;;;;;;;11.77;6.55;;;12.40;99.90;;;;;;7589521;19;20084;-75
2023/05/30 01:45:20;;;;;;;12.95;7.30;;;12.50;99.90;;;;;;7587247;19;20023;-75
2023/05/30 01:48:02;;;;;;;11.27;7.57;;;12.40;99.90;;;;;;7589476;19;20109;-75
2023/05/30 01:50:42;;;;;;;12.95;7.15;;;12.40;99.90;;;;;;7594596;19;20106;-75
2023/05/30 01:53:25;;;;;;;13.75;7.15;;;12.30;99.90;;;;;;7574215;19;20071;-73
2023/05/30 01:55:59;;;;;;;14.20;8.48;;;12.00;99.90;;;;;;7587958;19;20030;-75
2023/05/30 01:58:34;;;;;;;13.15;7.57;;;12.00;99.90;;;;;;7589814;19;20761;-75
2023/05/30 02:01:07;;;;;;;15.43;8.27;;;12.00;99.90;;;;;;7585534;19;20015;-76
2023/05/30 02:03:40;;;;;;;11.65;6.70;;;11.90;99.90;;;;;;7592119;19;20022;-75
2023/05/30 02:06:12;;;;;;;11.02;7.45;;;11.80;99.90;;;;;;7592183;19;20015;-77
2023/05/30 02:08:45;;;;;;;12.82;8.35;;;11.70;99.90;;;;;;7588815;19;20022;-74
2023/05/30 02:11:17;;;;;;;11.77;7.80;;;11.80;99.90;;;;;;7587697;19;20124;-74
2023/05/30 02:13:50;;;;;;;13.65;7.97;;;11.80;99.90;;;;;;7598767;19;20019;-75
2023/05/30 02:16:24;;;;;;;12.77;7.75;;;11.80;99.90;;;;;;7595873;19;20049;-74
2023/05/30 02:18:56;;;;;;;17.42;7.82;;;11.70;99.90;;;;;;7601317;19;20022;-74
2023/05/30 02:21:28;;;;;;;11.65;7.90;;;11.80;99.90;;;;;;7596844;19;20539;-75
2023/05/30 02:24:01;;;;;;;11.07;6.82;;;11.90;99.90;;;;;;7592400;19;20137;-76
2023/05/30 02:26:35;;;;;;;13.40;7.70;;;12.00;99.90;;;;;;7597438;19;20827;-77
2023/05/30 02:29:08;;;;;;;14.35;7.22;;;12.10;99.90;;;;;;7599672;19;20588;-73
2023/05/30 02:31:41;;;;;;;12.73;7.97;;;12.00;99.90;;;;;;7597440;19;20022;-75
2023/05/30 02:34:13;;;;;;;15.10;7.32;;;12.00;99.90;;;;;;7594039;19;20518;-74
2023/05/30 02:36:45;;;;;;;11.65;7.72;;;12.00;99.90;;;;;;7599683;19;20011;-75
2023/05/30 02:39:17;;;;;;;12.93;7.45;;;12.00;99.90;;;;;;7591456;19;20052;-75
2023/05/30 02:41:50;;;;;;;13.73;7.72;;;12.00;99.90;;;;;;7599436;19;20018;-75
2023/05/30 02:44:24;;;;;;;14.52;7.88;;;12.00;99.90;;;;;;7594016;19;20041;-75
2023/05/30 02:46:56;;;;;;;13.98;7.43;;;11.90;99.90;;;;;;7593180;19;20505;-75
2023/05/30 02:49:30;;;;;;;10.35;7.22;;;11.90;99.90;;;;;;7599816;19;20018;-74
2023/05/30 02:52:04;;;;;;;14.23;6.93;;;11.90;99.90;;;;;;7594979;19;20757;-74
2023/05/30 02:54:44;;;;;;;12.20;7.40;;;11.90;99.90;;;;;;7591462;19;20018;-76
2023/05/30 02:57:35;;;;;;;13.93;7.00;;;11.90;99.90;;;;;;7594354;19;20034;-75
2023/05/30 03:00:20;;;;;;;14.23;7.65;;;11.90;99.90;;;;;;7596617;19;20138;-75
2023/05/30 03:03:05;;;;;;;13.30;6.63;;;11.90;99.90;;;;;;7596504;19;20868;-75
2023/05/30 03:05:39;;;;;;;11.43;7.32;;;12.00;99.90;;;;;;7592980;19;20081;-75
2023/05/30 03:08:15;;;;;;;16.27;7.78;;;12.00;99.90;;;;;;7593908;19;20025;-76
2023/05/30 03:10:57;;;;;;;11.63;7.68;;;12.00;99.90;;;;;;7597008;19;20018;-75
2023/05/30 03:13:30;;;;;;;12.65;7.72;;;11.90;99.90;;;;;;7597449;19;20094;-74
2023/05/30 03:16:02;;;;;;;14.05;7.75;;;11.90;99.90;;;;;;7587472;19;20026;-74
2023/05/30 03:18:35;;;;;;;12.77;7.47;;;11.90;99.90;;;;;;7597388;19;20665;-77
2023/05/30 03:21:08;;;;;;;14.13;7.97;;;11.90;99.90;;;;;;7599805;19;20287;-77
2023/05/30 03:23:40;;;;;;;11.07;7.55;;;11.90;99.90;;;;;;7595804;19;20082;-77
2023/05/30 03:26:13;;;;;;;11.23;7.18;;;11.90;99.90;;;;;;7599795;19;20026;-77
2023/05/30 03:28:45;;;;;;;12.60;7.55;;;11.90;99.90;;;;;;7597304;19;20017;-75
2023/05/30 03:31:29;;;;;;;14.18;7.47;;;11.90;99.90;;;;;;7590079;19;20023;-75
2023/05/30 03:34:02;;;;;;;11.93;7.05;;;11.90;99.90;;;;;;7597121;19;20027;-75
2023/05/30 03:36:35;;;;;;;17.25;7.70;;;11.80;99.90;;;;;;7595011;19;20051;-75
2023/05/30 03:39:08;;;;;;;12.38;7.20;;;11.90;99.90;;;;;;7599271;19;20778;-75
2023/05/30 03:41:40;;;;;;;14.10;7.20;;;12.00;99.90;;;;;;7598599;19;20014;-75
2023/05/30 03:44:12;;;;;;;16.05;7.60;;;12.00;99.90;;;;;;7595488;19;20035;-75
2023/05/30 03:46:44;;;;;;;10.68;7.40;;;12.00;99.90;;;;;;7594919;19;20019;-76
2023/05/30 03:49:17;;;;;;;13.93;7.72;;;12.00;99.90;;;;;;7596969;19;20010;-75
2023/05/30 03:51:49;;;;;;;11.30;6.93;;;12.00;99.90;;;;;;7595840;19;20136;-75
2023/05/30 03:54:21;;;;;;;12.13;7.47;;;11.90;99.90;;;;;;7589320;19;20052;-75
2023/05/30 03:56:53;;;;;;;14.52;7.80;;;11.90;99.90;;;;;;7596908;19;20377;-75
2023/05/30 03:59:26;;;;;;;11.07;7.15;;;11.90;99.90;;;;;;7597265;19;20086;-76
2023/05/30 04:01:58;;;;;;;13.43;6.97;;;11.90;99.90;;;;;;7592101;19;20551;-74
2023/05/30 04:04:31;;;;;;;17.25;7.13;;;11.90;99.90;;;;;;7593882;19;20819;-75
2023/05/30 04:07:04;;;;;;;10.68;7.05;;;11.90;99.90;;;;;;7598336;19;20089;-75
2023/05/30 04:09:36;;;;;;;14.27;7.33;;;12.00;99.90;;;;;;7596482;19;20313;-75
2023/05/30 04:12:10;;;;;;;10.07;6.95;;;12.00;99.90;;;;;;7596900;19;20025;-75
2023/05/30 04:14:44;;;;;;;9.32;6.53;;;12.00;99.90;;;;;;7589610;19;20038;-75
2023/05/30 04:17:17;;;;;;;;;;;12.00;99.90;;;;;;7587239;19;20022;-75
2023/05/30 04:19:50;;;;;;;10.65;6.25;;;12.00;99.90;;;;;;7595215;19;19922;-75
2023/05/30 04:22:24;;;;;;;11.80;6.88;;;12.10;99.90;;;;;;7593866;19;20073;-75
2023/05/30 04:24:56;;;;;;;11.38;6.43;;;12.10;99.90;;;;;;7593458;19;20018;-75
2023/05/30 04:27:29;;;;;;;11.73;6.40;;;12.20;99.90;;;;;;7591615;19;20033;-75
2023/05/30 04:30:03;;;;;;;11.60;6.77;;;12.30;99.90;;;;;;7593903;19;20015;-75
2023/05/30 04:32:36;;;;;;;10.32;6.18;;;12.40;99.90;;;;;;7593080;19;20268;-75
2023/05/30 04:35:09;;;;;;;11.90;6.95;;;12.40;99.90;;;;;;7588812;19;20015;-75
2023/05/30 04:37:44;;;;;;;9.90;6.18;;;12.50;99.90;;;;;;7591622;19;20039;-75
2023/05/30 04:40:18;;;;;;;11.07;7.10;;;12.60;99.90;;;;;;7593289;19;20039;-75
2023/05/30 04:42:52;;;;;;;10.50;7.05;;;12.60;99.90;;;;;;7590756;19;20888;-75
2023/05/30 04:45:28;;;;;;;11.75;7.50;;;12.60;99.90;;;;;;7585949;19;20018;-75
2023/05/30 04:48:03;;;;;;;14.85;6.97;;;12.60;99.90;;;;;;7593567;19;20018;-75
2023/05/30 04:50:37;;;;;;;14.65;7.47;;;12.60;99.90;;;;;;7589866;19;20894;-74
2023/05/30 04:53:09;;;;;;;15.35;8.38;;;12.70;99.90;;;;;;7592642;19;20141;-74
2023/05/30 04:55:44;;;;;;;11.68;7.93;;;12.70;99.90;;;;;;7587127;19;20018;-76
2023/05/30 04:58:17;;;;;;;12.63;7.63;;;12.80;99.90;;;;;;7596003;19;20018;-75
2023/05/30 05:00:50;;;;;;;10.88;6.93;;;12.80;99.90;;;;;;7583287;19;20174;-75
2023/05/30 05:03:22;;;;;;;13.02;7.88;;;12.90;99.90;;;;;;7587375;19;20025;-74
2023/05/30 05:05:55;;;;;;;12.02;7.78;;;12.90;99.90;;;;;;7593620;19;20010;-75
2023/05/30 05:08:29;;;;;;;12.03;7.27;;;12.90;99.90;;;;;;7589679;19;20026;-76
2023/05/30 05:11:04;;;;;;;12.82;7.28;;;12.90;99.90;;;;;;7593201;19;20355;-76
2023/05/30 05:13:37;;;;;;;11.27;7.30;;;12.90;99.90;;;;;;7593469;19;20056;-76
2023/05/30 05:16:09;;;;;;;10.65;6.90;;;12.90;99.90;;;;;;7588643;19;20022;-75
2023/05/30 05:18:41;;;;;;;13.60;7.03;;;13.00;99.90;;;;;;7582511;19;20015;-76
2023/05/30 05:21:14;;;;;;;17.08;7.05;;;13.10;99.90;;;;;;7590698;19;20504;-75
2023/05/30 05:23:46;;;;;;;11.10;6.97;;;13.10;99.90;;;;;;7583156;19;20015;-75
2023/05/30 05:26:18;;;;;;;14.38;7.53;;;13.20;99.90;;;;;;7585721;19;20897;-76
2023/05/30 05:28:51;;;;;;;15.48;6.72;;;13.20;99.90;;;;;;7590096;19;20064;-74
2023/05/30 05:31:23;;;;;;;11.75;6.65;;;13.30;99.90;;;;;;7588763;19;20551;-75
2023/05/30 05:33:55;;;;;;;10.93;6.55;;;13.30;99.90;;;;;;7589265;19;20045;-75
2023/05/30 05:36:27;;;;;;;9.98;6.57;;;13.40;99.90;;;;;;7595881;19;20055;-75
2023/05/30 05:39:00;;;;;;;12.52;6.68;;;13.50;99.90;;;;;;7594890;19;20517;-76
2023/05/30 05:41:32;;;;;;;15.20;7.07;;;13.50;99.90;;;;;;7590099;19;20039;-75
2023/05/30 05:44:04;;;;;;;14.02;6.35;;;13.70;99.90;;;;;;7593247;19;20353;-76
2023/05/30 05:46:36;;;;;;;13.18;7.03;;;13.80;99.90;;;;;;7590314;19;20403;-75
2023/05/30 05:49:08;;;;;;;13.80;7.15;;;14.00;99.90;;;;;;7589768;19;20704;-77
2023/05/30 05:51:41;;;;;;;12.00;6.82;;;;;;;;;;7590549;19;20422;-76
2023/05/30 05:54:14;;;;;;;16.83;7.55;;;;;;;;;;7589439;19;20457;-78
2023/05/30 05:56:46;;;;;;;11.77;6.97;;;;;;;;;;7587151;19;20103;-76
2023/05/30 05:59:19;;;;;;;12.13;7.53;;;;;;;;;;7583492;19;20007;-78
2023/05/30 06:01:51;;;;;;;13.10;6.85;;;14.20;99.90;;;;;;7588308;19;20093;-76
2023/05/30 06:04:23;;;;;;;15.55;6.82;;;14.70;99.90;;;;;;7583096;19;21317;-77
2023/05/30 06:06:56;;;;;;;13.40;7.15;;;14.80;99.90;;;;;;7587437;19;20022;-75
2023/05/30 06:09:30;;;;;;;17.13;7.07;;;14.90;99.90;;;;;;7591564;19;20195;-76
2023/05/30 06:12:03;;;;;;;19.02;7.63;;;15.10;99.90;;;;;;7599890;19;20014;-79
2023/05/30 06:14:38;;;;;;;20.02;6.72;;;15.30;99.90;;;;;;7585677;19;20013;-75
2023/05/30 06:17:10;;;;;;;19.48;6.68;;;15.40;99.90;;;;;;7589914;19;20086;-76
2023/05/30 06:19:43;;;;;;;12.70;6.00;;;15.50;99.90;;;;;;7586824;19;20757;-76
2023/05/30 06:22:15;;;;;;;12.73;6.43;;;15.60;99.90;;;;;;7592258;19;20015;-76
2023/05/30 06:24:48;;;;;;;16.35;5.85;;;;;;;;;;7591408;19;20018;-78
2023/05/30 06:27:20;;;;;;;11.05;6.38;;;15.70;99.90;;;;;;7588193;19;20262;-76
2023/05/30 06:29:53;;;;;;;10.80;5.57;;;15.90;99.90;;;;;;7584430;19;21144;-76
2023/05/30 06:32:25;;;;;;;13.63;6.60;;;15.90;99.90;;;;;;7582451;19;20109;-76
2023/05/30 06:34:57;;;;;;;12.38;5.10;;;16.00;99.90;;;;;;7589981;19;20866;-75
2023/05/30 06:37:29;;;;;;;10.18;5.78;;;16.20;99.90;;;;;;7592776;19;20706;-75
2023/05/30 06:40:02;;;;;;;8.68;5.63;;;16.40;98.60;;;;;;7587704;19;20045;-76
2023/05/30 06:42:35;;;;;;;8.60;5.07;;;16.40;97.90;;;;;;7591720;19;20367;-75
2023/05/30 06:45:09;;;;;;;8.77;5.32;;;16.60;98.30;;;;;;7579643;19;20567;-76
2023/05/30 06:47:41;;;;;;;11.18;5.78;;;16.60;96.20;;;;;;7585141;19;20019;-76
2023/05/30 06:50:14;;;;;;;10.27;5.13;;;16.60;95.40;;;;;;7579512;19;20056;-77
2023/05/30 06:52:46;;;;;;;11.05;5.35;;;16.70;95.70;;;;;;7587476;19;20018;-76
2023/05/30 06:55:18;;;;;;;11.15;4.40;;;16.80;96.00;;;;;;7589145;19;20022;-76
2023/05/30 06:57:54;;;;;;;13.50;5.20;;;17.00;95.00;;;;;;7588126;19;20900;-76
2023/05/30 07:00:27;;;;;;;10.25;5.30;;;17.10;94.30;;;;;;7594713;19;20028;-76
2023/05/30 07:03:02;;;;;;;8.95;5.28;;;17.20;94.90;;;;;;7600290;19;20571;-76
2023/05/30 07:05:34;;;;;;;8.73;5.20;;;17.10;92.80;;;;;;7591950;19;20387;-77
2023/05/30 07:08:07;;;;;;;7.18;4.63;;;17.10;93.60;;;;;;7594164;19;20022;-75
2023/05/30 07:10:39;;;;;;;10.18;4.82;;;17.20;93.20;;;;;;7595912;19;20055;-76
2023/05/30 07:13:12;;;;;;;10.88;4.88;;;17.40;92.80;;;;;;7593775;19;20849;-76
2023/05/30 07:15:44;;;;;;;13.23;4.95;;;17.50;90.70;;;;;;7593709;19;20089;-74
2023/05/30 07:18:16;;;;;;;12.38;4.88;;;17.60;89.70;;;;;;7597879;19;20021;-75
2023/05/30 07:20:48;;;;;;;9.23;5.38;;;17.70;90.60;;;;;;7603298;19;20014;-76
2023/05/30 07:23:21;;;;;;;13.23;4.82;;;17.80;90.80;;;;;;7598748;19;20677;-78
2023/05/30 07:25:53;;;;;;;9.82;4.80;;;18.00;90.60;;;;;;7593413;19;20014;-76
2023/05/30 07:28:26;;;;;;;9.70;4.87;;;18.20;91.10;;;;;;7603812;19;20019;-76
2023/05/30 07:30:58;;;;;;;5.72;4.22;;;18.40;90.00;;;;;;7597266;19;20317;-76
2023/05/30 07:33:31;;;;;;;10.23;5.00;;;18.50;88.10;;;;;;7599780;19;20820;-76
2023/05/30 07:36:03;;;;;;;15.23;5.13;;;18.70;85.40;;;;;;7592103;19;20022;-77
2023/05/30 07:38:35;;;;;;;7.13;4.80;;;18.60;85.30;;;;;;7602539;19;20052;-76
2023/05/30 07:41:08;;;;;;;11.32;5.05;;;18.60;84.90;;;;;;7601407;19;20014;-77
2023/05/30 07:43:40;;;;;;;8.75;4.88;;;18.80;84.50;;;;;;7599508;19;20433;-76
2023/05/30 07:46:13;;;;;;;11.05;4.90;;;18.90;83.90;;;;;;7599729;19;20082;-76
2023/05/30 07:48:45;;;;;;;12.73;4.80;;;19.00;82.70;;;;;;7594299;19;20056;-76
2023/05/30 07:51:19;;;;;;;12.20;4.35;;;19.10;80.50;;;;;;7600700;19;20022;-77
2023/05/30 07:53:51;;;;;;;10.60;4.18;;;19.10;81.00;;;;;;7581500;19;20024;-76
2023/05/30 07:56:24;;;;;;;8.45;4.53;;;19.20;81.90;;;;;;7595146;19;20027;-76
2023/05/30 07:58:56;;;;;;;7.93;4.35;;;19.30;80.40;;;;;;7597069;19;20477;-76
2023/05/30 08:01:28;;;;;;;9.00;4.80;;;;;;;;;;7596425;19;20018;-77
2023/05/30 08:04:01;;;;;;;10.57;4.60;;;;;;;;;;7597268;19;20022;-78
2023/05/30 08:06:35;;;;;;;8.20;4.30;;;;;;;;;;7594856;19;20018;-76
2023/05/30 08:09:08;;;;;;;8.90;4.57;;;;;;;;;;7600997;19;20898;-77
2023/05/30 08:11:41;;;;;;;11.18;5.20;;;;;;;;;;7599311;19;20030;-77
2023/05/30 08:14:15;;;;;;;11.68;5.05;;;;;;;;;;7600753;19;20015;-77
2023/05/30 08:16:48;;;;;;;9.68;4.40;;;;;;;;;;7590749;19;20570;-78
2023/05/30 08:19:22;;;;;;;10.30;4.80;;;;;;;;;;7596885;19;20088;-74
2023/05/30 08:21:54;;;;;;;10.50;4.95;;;;;;;;;;7595559;19;20029;-76
2023/05/30 08:24:28;;;;;;;7.87;4.63;;;;;;;;;;7593597;19;20491;-75
2023/05/30 08:27:01;;;;;;;11.63;5.13;;;;;;;;;;7594439;19;20042;-76
2023/05/30 08:29:34;;;;;;;12.80;4.95;;;;;;;;;;7597769;19;20033;-75
2023/05/30 08:32:06;;;;;;;10.38;5.38;;;;;;;;;;7603628;19;20010;-76
2023/05/30 08:34:39;;;;;;;7.73;4.93;;;;;;;;;;7600558;19;20057;-76
2023/05/30 08:37:12;;;;;;;9.68;4.97;;;;;;;;;;7602835;19;20086;-76
2023/05/30 08:39:44;;;;;;;10.52;4.82;;;;;;;;;;7601885;19;21108;-75
2023/05/30 08:42:17;;;;;;;12.25;4.38;;;;;;;;;;7598214;19;20050;-76
2023/05/30 08:44:50;;;;;;;13.63;4.78;;;;;;;;;;7594355;19;20109;-76
2023/05/30 08:47:22;;;;;;;7.07;4.33;;;;;;;;;;7596210;19;20010;-76
2023/05/30 08:49:56;;;;;;;7.75;4.63;;;;;;;;;;7594944;19;20911;-76
2023/05/30 08:52:31;;;;;;;7.65;4.32;;;;;;;;;;7598013;19;20566;-76
2023/05/30 08:55:17;;;;;;;7.35;4.00;;;;;;;;;;7591130;19;20024;-76
2023/05/30 08:57:53;;;;;;;8.85;4.50;;;;;;;;;;7596903;19;20387;-77
2023/05/30 09:00:26;;;;;;;11.13;4.80;;;;;;;;;;7601375;19;20026;-76
2023/05/30 09:02:59;;;;;;;12.27;4.97;;;;;;;;;;7594052;19;20693;-77
2023/05/30 09:05:35;;;;;;;8.77;4.65;;;;;;;;;;7595401;19;20026;-76
2023/05/30 09:08:09;;;;;;;7.75;5.00;;;;;;;;;;7594001;19;20018;-76
2023/05/30 09:10:50;;;;;;;8.55;4.43;;;;;;;;;;7594634;19;20030;-76
2023/05/30 09:13:23;;;;;;;9.95;4.32;;;;;;;;;;7594872;19;20006;-76
2023/05/30 09:15:56;;;;;;;8.10;4.85;;;;;;;;;;7587590;19;20018;-77
2023/05/30 09:18:29;;;;;;;13.20;4.90;;;;;;;;;;7596601;19;20042;-76
2023/05/30 09:21:03;;;;;;;9.68;4.68;;;;;;;;;;7589479;19;20654;-76
2023/05/30 09:23:36;;;;;;;10.45;4.55;;;;;;;;;;7590997;19;20666;-76
2023/05/30 09:26:14;;;;;;;6.40;4.10;;;;;;;;;;7591814;19;20110;-78
2023/05/30 09:28:48;;;;;;;9.82;4.43;;;;;;;;;;7592894;19;20301;-75
2023/05/30 09:31:24;;;;;;;10.82;4.25;;;;;;;;;;7599411;19;20011;-78
2023/05/30 09:33:57;;;;;;;11.82;4.72;;;;;;;;;;7589232;19;20015;-76
2023/05/30 09:36:29;;;;;;;8.07;4.50;;;;;;;;;;7596342;19;20105;-78
2023/05/30 09:39:05;;;;;;;9.53;5.20;;;;;;;;;;7575915;19;20044;-78
2023/05/30 09:41:37;;;;;;;13.88;4.32;;;19.40;80.20;;;;;;7590390;19;20018;-77
2023/05/30 09:44:10;;;;;;;9.63;4.85;;;21.70;73.30;;;;;;7594962;19;20109;-76
2023/05/30 09:46:42;;;;;;;12.07;5.13;;;21.70;72.20;;;;;;7585364;19;20090;-76
2023/05/30 09:49:15;;;;;;;11.02;4.30;;;21.70;72.80;;;;;;7589630;19;20607;-76
2023/05/30 09:51:50;;;;;;;10.63;4.43;;;21.60;71.70;;;;;;7590734;19;20093;-75
2023/05/30 09:54:22;;;;;;;12.82;5.15;;;21.70;73.30;;;;;;7592818;19;20007;-76
2023/05/30 09:56:54;;;;;;;10.27;4.75;;;21.90;71.90;;;;;;7589972;19;20035;-76
2023/05/30 09:59:27;;;;;;;9.13;4.73;;;21.90;70.50;;;;;;7594909;19;20098;-76
2023/05/30 10:02:01;;;;;;;9.45;4.43;;;22.00;71.00;;;;;;7590806;19;20328;-77
2023/05/30 10:04:38;;;;;;;11.05;4.47;;;22.10;70.80;;;;;;7597441;19;20018;-75
2023/05/30 10:07:11;;;;;;;11.02;4.57;;;22.20;70.00;;;;;;7589585;19;20014;-76
2023/05/30 10:09:44;;;;;;;13.85;4.20;;;22.20;70.40;;;;;;7588117;19;20017;-76
2023/05/30 10:12:17;;;;;;;10.45;4.65;;;22.10;70.40;;;;;;7596593;19;20093;-76
2023/05/30 10:14:49;;;;;;;8.43;4.53;;;21.80;69.60;;;;;;7585097;19;20014;-77
2023/05/30 10:17:25;;;;;;;11.88;4.55;;;21.70;69.40;;;;;;7590004;19;20022;-76
2023/05/30 10:20:01;;;;;;;7.35;4.22;;;21.70;69.80;;;;;;7596663;19;20021;-77
2023/05/30 10:22:41;;;;;;;7.82;4.55;;;22.00;68.50;;;;;;7596908;19;20500;-78
2023/05/30 10:25:15;;;;;;;8.52;4.20;;;;;;;;;;7592985;19;20026;-76
2023/05/30 10:27:58;;;;;;;10.98;3.90;;;;;;;;;;7594968;19;20477;-77
2023/05/30 10:30:32;;;;;;;8.15;4.13;;;22.60;66.60;;;;;;7603354;19;20020;-77
2023/05/30 10:33:12;;;;;;;7.10;4.05;;;22.40;65.80;;;;;;7597983;19;20017;-77
2023/05/30 10:35:46;;;;;;;6.40;4.05;;;22.20;66.90;;;;;;7605152;19;20026;-77
2023/05/30 10:38:19;;;;;;;8.15;4.20;;;22.20;66.10;;;;;;7596904;19;20029;-77
2023/05/30 10:41:04;;;;;;;13.95;5.00;;;22.60;66.00;;;;;;7600229;19;20433;-78
2023/05/30 10:43:48;;;;;;;7.20;4.10;;;22.70;62.70;;;;;;7603698;19;20534;-77
2023/05/30 10:46:35;;;;;;;13.25;4.20;;;22.90;62.60;;;;;;7606071;19;20026;-76
2023/05/30 10:49:11;;;;;;;11.20;4.63;;;;;;;;;;7601809;19;20022;-78
2023/05/30 10:52:00;;;;;;;8.88;4.70;;;22.90;64.20;;;;;;7589589;19;20348;-76
2023/05/30 10:54:35;;;;;;;18.65;4.30;;;23.00;61.60;;;;;;7599787;19;20026;-77
2023/05/30 10:57:27;;;;;;;10.52;4.03;;;22.80;62.20;;;;;;7594477;19;20022;-76
2023/05/30 11:00:29;;;;;;;6.85;4.20;;;22.70;62.20;;;;;;7598324;19;20011;-78
2023/05/30 11:03:01;;;;;;;7.90;4.05;;;23.00;62.90;;;;;;7594833;19;20022;-76
2023/05/30 11:05:35;;;;;;;10.48;4.72;;;23.00;61.30;;;;;;7597880;19;20093;-77
2023/05/30 11:08:08;;;;;;;10.63;4.80;;;22.80;60.50;;;;;;7598661;19;20025;-76
2023/05/30 11:10:40;;;;;;;8.15;4.57;;;22.70;62.10;;;;;;7594366;19;20014;-76
2023/05/30 11:13:15;;;;;;;8.45;4.15;;;22.80;60.80;;;;;;7596636;19;20018;-76
2023/05/30 11:15:47;;;;;;;9.88;4.68;;;22.60;60.70;;;;;;7595036;19;20374;-76
2023/05/30 11:18:21;;;;;;;7.60;4.22;;;22.50;59.90;;;;;;7594543;19;20570;-76
2023/05/30 11:20:55;;;;;;;6.47;4.40;;;22.50;60.70;;;;;;7593026;19;20010;-76
2023/05/30 11:23:29;;;;;;;7.40;4.32;;;22.40;60.30;;;;;;7593953;19;20025;-78
2023/05/30 11:26:02;;;;;;;6.07;4.27;;;22.40;60.00;;;;;;7589825;19;20022;-77
2023/05/30 11:28:35;;;;;;;8.57;4.22;;;22.40;60.80;;;;;;7599592;19;20539;-77
2023/05/30 11:31:16;;;;;;;7.43;4.40;;;22.40;60.10;;;;;;7595186;19;20022;-76
2023/05/30 11:33:51;;;;;;;6.85;4.03;;;22.60;61.30;;;;;;7596717;19;20048;-75
2023/05/30 11:36:24;;;;;;;7.05;4.25;;;22.60;60.20;;;;;;7600442;19;20042;-77
2023/05/30 11:38:57;;;;;;;11.05;4.03;;;22.60;60.10;;;;;;7600534;19;20922;-77
2023/05/30 11:41:29;;;;;;;10.75;4.40;;;22.80;60.10;;;;;;7603433;19;20033;-78
2023/05/30 11:44:08;;;;;;;9.95;4.35;;;22.90;60.10;;;;;;7606207;19;20022;-77
2023/05/30 11:46:41;;;;;;;10.45;4.22;;;23.10;58.50;;;;;;7603110;19;21229;-76
2023/05/30 11:49:13;;;;;;;6.50;4.30;;;23.20;58.80;;;;;;7602819;19;20021;-75
2023/05/30 11:51:46;;;;;;;10.38;4.22;;;23.30;56.70;;;;;;7598979;19;20038;-74
2023/05/30 11:54:19;;;;;;;8.48;4.55;;;23.60;57.50;;;;;;7596094;19;20026;-74
2023/05/30 11:56:51;;;;;;;9.88;4.72;;;23.60;55.70;;;;;;7590840;19;20053;-77
2023/05/30 11:59:25;;;;;;;8.77;4.25;;;23.70;55.30;;;;;;7596368;19;20534;-77
2023/05/30 12:01:59;;;;;;;8.55;4.50;;;23.90;55.50;;;;;;7592845;19;20345;-75
2023/05/30 12:04:33;;;;;;;11.70;4.32;;;24.30;56.40;;;;;;7596337;19;20386;-78
2023/05/30 12:07:06;;;;;;;7.32;4.20;;;24.80;54.80;;;;;;7595470;19;20717;-76
2023/05/30 12:09:39;;;;;;;6.43;4.37;;;25.20;52.70;;;;;;7596278;19;20030;-78
2023/05/30 12:12:11;;;;;;;7.20;4.50;;;25.40;52.80;;;;;;7596463;19;20817;-76
2023/05/30 12:14:47;;;;;;;5.40;4.05;;;25.80;51.50;;;;;;7595945;19;20018;-78
2023/05/30 12:17:21;;;;;;;7.97;4.35;;;25.70;48.40;;;;;;7597427;19;20014;-78
2023/05/30 12:19:59;;;;;;;6.40;4.25;;;25.80;48.00;;;;;;7594042;19;20022;-75
2023/05/30 12:22:31;;;;;;;7.40;4.18;;;26.10;48.10;;;;;;7593319;19;20010;-77
2023/05/30 12:25:08;;;;;;;9.13;4.35;;;26.60;47.80;;;;;;7591243;19;20014;-76
2023/05/30 12:27:48;;;;;;;6.57;4.20;;;26.90;47.10;;;;;;7595370;19;20017;-75
2023/05/30 12:30:21;;;;;;;7.95;4.70;;;27.10;46.50;;;;;;7596811;19;20543;-76
2023/05/30 12:32:54;;;;;;;7.70;3.65;;;27.20;47.50;;;;;;7592746;19;20015;-76
2023/05/30 12:35:26;;;;;;;9.32;4.45;;;27.30;46.20;;;;;;7595962;19;20395;-76
2023/05/30 12:37:59;;;;;;;7.90;3.97;;;27.20;47.00;;;;;;7591249;19;20991;-76
2023/05/30 12:40:33;;;;;;;8.77;4.55;;;27.30;46.60;;;;;;7597096;19;20292;-79
2023/05/30 12:43:05;;;;;;;7.20;4.15;;;27.50;46.70;;;;;;7594924;19;20559;-76
2023/05/30 12:45:37;;;;;;;8.88;4.60;;;27.10;47.80;;;;;;7593207;19;20018;-77
2023/05/30 12:48:09;;;;;;;12.18;4.55;;;27.00;46.60;;;;;;7593046;19;20015;-77
2023/05/30 12:50:41;;;;;;;5.88;4.40;;;26.50;49.20;;;;;;7592669;19;20635;-77
2023/05/30 12:53:14;;;;;;;9.07;4.70;;;25.60;50.50;;;;;;7582583;19;20045;-76
2023/05/30 12:55:46;;;;;;;9.20;4.50;;;25.10;52.70;;;;;;7590508;19;20053;-77
2023/05/30 12:58:18;;;;;;;12.75;4.95;;;24.60;53.90;;;;;;7588640;19;20015;-78
2023/05/30 13:00:51;;;;;;;12.93;4.30;;;24.70;55.20;;;;;;7589862;19;20105;-78
2023/05/30 13:03:23;;;;;;;7.45;4.55;;;25.00;54.90;;;;;;7595067;19;20826;-77
2023/05/30 13:05:55;;;;;;;9.05;4.78;;;25.00;54.30;;;;;;7587250;19;20121;-79
2023/05/30 13:08:27;;;;;;;8.00;4.68;;;24.70;54.80;;;;;;7588462;19;20063;-78
2023/05/30 13:10:59;;;;;;;7.95;4.70;;;24.30;55.40;;;;;;7589348;19;20014;-77
2023/05/30 13:13:36;;;;;;;8.32;4.53;;;24.10;56.50;;;;;;7599580;19;20373;-76
2023/05/30 13:16:08;;;;;;;9.95;4.80;;;23.80;56.40;;;;;;7594063;19;20015;-78
2023/05/30 13:18:40;;;;;;;12.38;5.05;;;23.60;57.50;;;;;;7588987;19;20587;-77
2023/05/30 13:21:12;;;;;;;8.65;4.60;;;23.40;57.50;;;;;;7591018;19;20015;-78
2023/05/30 13:23:45;;;;;;;9.13;5.15;;;23.30;57.80;;;;;;7584594;19;20662;-77
2023/05/30 13:26:17;;;;;;;7.80;4.57;;;23.20;57.80;;;;;;7588848;19;20015;-76
2023/05/30 13:28:49;;;;;;;11.77;4.70;;;23.10;58.30;;;;;;7593400;19;20377;-76
2023/05/30 13:31:21;;;;;;;8.25;4.97;;;23.10;58.90;;;;;;7593941;19;20060;-76